sensor_id;sensor_type;location;lat;lon;timestamp;P1;durP1;ratioP1;P2;durP2;ratioP2
7116;SDS011;3600;48.568;7.870;2022-09-02T00:03:40;4.95;;;4.63;;
7116;SDS011;3600;48.568;7.870;2022-09-02T00:06:08;5.03;;;4.65;;
7116;SDS011;3600;48.568;7.870;2022-09-02T00:08:35;5.60;;;4.82;;
7116;SDS011;3600;48.568;7.870;2022-09-02T00:11:02;5.53;;;5.03;;
7116;SDS011;3600;48.568;7.870;2022-09-02T00:13:32;5.22;;;4.72;;
7116;SDS011;3600;48.568;7.870;2022-09-02T00:16:01;4.80;;;4.45;;
7116;SDS011;3600;48.568;7.870;2022-09-02T00:18:29;5.55;;;4.63;;
7116;SDS011;3600;48.568;7.870;2022-09-02T00:20:56;5.43;;;5.03;;
7116;SDS011;3600;48.568;7.870;2022-09-02T00:23:23;5.55;;;5.15;;
7116;SDS011;3600;48.568;7.870;2022-09-02T00:25:52;5.45;;;4.95;;
7116;SDS011;3600;48.568;7.870;2022-09-02T00:28:19;5.90;;;5.32;;
7116;SDS011;3600;48.568;7.870;2022-09-02T00:30:46;5.07;;;4.68;;
7116;SDS011;3600;48.568;7.870;2022-09-02T00:33:13;4.95;;;4.55;;
7116;SDS011;3600;48.568;7.870;2022-09-02T00:35:40;5.35;;;4.95;;
7116;SDS011;3600;48.568;7.870;2022-09-02T00:38:07;4.82;;;4.53;;
7116;SDS011;3600;48.568;7.870;2022-09-02T00:40:35;5.00;;;4.60;;
7116;SDS011;3600;48.568;7.870;2022-09-02T00:43:05;5.68;;;5.18;;
7116;SDS011;3600;48.568;7.870;2022-09-02T00:45:34;5.50;;;5.10;;
7116;SDS011;3600;48.568;7.870;2022-09-02T00:48:01;5.63;;;5.13;;
7116;SDS011;3600;48.568;7.870;2022-09-02T00:50:30;6.00;;;5.40;;
7116;SDS011;3600;48.568;7.870;2022-09-02T00:53:04;5.93;;;5.25;;
7116;SDS011;3600;48.568;7.870;2022-09-02T00:55:35;5.22;;;4.82;;
7116;SDS011;3600;48.568;7.870;2022-09-02T00:58:26;5.50;;;5.00;;
7116;SDS011;3600;48.568;7.870;2022-09-02T01:00:58;5.15;;;4.75;;
7116;SDS011;3600;48.568;7.870;2022-09-02T01:03:26;5.00;;;4.65;;
7116;SDS011;3600;48.568;7.870;2022-09-02T01:05:56;5.20;;;4.80;;
7116;SDS011;3600;48.568;7.870;2022-09-02T01:08:24;5.80;;;5.30;;
7116;SDS011;3600;48.568;7.870;2022-09-02T01:10:55;5.35;;;4.88;;
7116;SDS011;3600;48.568;7.870;2022-09-02T01:13:24;4.75;;;4.35;;
7116;SDS011;3600;48.568;7.870;2022-09-02T01:16:01;4.95;;;4.50;;
7116;SDS011;3600;48.568;7.870;2022-09-02T01:18:35;5.05;;;4.72;;
7116;SDS011;3600;48.568;7.870;2022-09-02T01:21:02;4.72;;;4.25;;
7116;SDS011;3600;48.568;7.870;2022-09-02T01:23:29;5.30;;;4.93;;
7116;SDS011;3600;48.568;7.870;2022-09-02T01:26:00;5.75;;;5.18;;
7116;SDS011;3600;48.568;7.870;2022-09-02T01:28:27;5.28;;;4.88;;
7116;SDS011;3600;48.568;7.870;2022-09-02T01:30:53;4.45;;;4.15;;
7116;SDS011;3600;48.568;7.870;2022-09-02T01:33:21;5.32;;;4.82;;
7116;SDS011;3600;48.568;7.870;2022-09-02T01:35:51;6.07;;;4.50;;
7116;SDS011;3600;48.568;7.870;2022-09-02T01:38:19;6.63;;;4.80;;
7116;SDS011;3600;48.568;7.870;2022-09-02T01:40:47;5.45;;;5.05;;
7116;SDS011;3600;48.568;7.870;2022-09-02T01:43:15;6.20;;;5.05;;
7116;SDS011;3600;48.568;7.870;2022-09-02T01:45:45;6.20;;;5.70;;
7116;SDS011;3600;48.568;7.870;2022-09-02T01:48:14;5.30;;;4.90;;
7116;SDS011;3600;48.568;7.870;2022-09-02T01:50:52;6.15;;;5.55;;
7116;SDS011;3600;48.568;7.870;2022-09-02T01:53:21;5.28;;;4.88;;
7116;SDS011;3600;48.568;7.870;2022-09-02T01:55:48;5.10;;;4.60;;
7116;SDS011;3600;48.568;7.870;2022-09-02T01:58:15;5.20;;;4.80;;
7116;SDS011;3600;48.568;7.870;2022-09-02T02:00:42;4.60;;;4.30;;
7116;SDS011;3600;48.568;7.870;2022-09-02T02:03:09;4.65;;;4.25;;
7116;SDS011;3600;48.568;7.870;2022-09-02T02:05:36;5.50;;;5.10;;
7116;SDS011;3600;48.568;7.870;2022-09-02T02:08:03;5.55;;;5.05;;
7116;SDS011;3600;48.568;7.870;2022-09-02T02:10:31;5.68;;;5.18;;
7116;SDS011;3600;48.568;7.870;2022-09-02T02:12:59;5.80;;;5.20;;
7116;SDS011;3600;48.568;7.870;2022-09-02T02:15:26;5.45;;;5.05;;
7116;SDS011;3600;48.568;7.870;2022-09-02T02:17:52;6.13;;;5.63;;
7116;SDS011;3600;48.568;7.870;2022-09-02T02:20:19;5.63;;;5.13;;
7116;SDS011;3600;48.568;7.870;2022-09-02T02:22:46;5.88;;;5.38;;
7116;SDS011;3600;48.568;7.870;2022-09-02T02:25:14;6.55;;;5.95;;
7116;SDS011;3600;48.568;7.870;2022-09-02T02:27:41;7.25;;;5.68;;
7116;SDS011;3600;48.568;7.870;2022-09-02T02:30:09;5.93;;;5.32;;
7116;SDS011;3600;48.568;7.870;2022-09-02T02:32:38;7.07;;;5.75;;
7116;SDS011;3600;48.568;7.870;2022-09-02T02:35:08;6.28;;;5.68;;
7116;SDS011;3600;48.568;7.870;2022-09-02T02:37:36;5.80;;;5.38;;
7116;SDS011;3600;48.568;7.870;2022-09-02T02:40:04;6.63;;;6.03;;
7116;SDS011;3600;48.568;7.870;2022-09-02T02:42:32;6.28;;;5.80;;
7116;SDS011;3600;48.568;7.870;2022-09-02T02:44:59;6.10;;;5.50;;
7116;SDS011;3600;48.568;7.870;2022-09-02T02:47:26;7.47;;;6.90;;
7116;SDS011;3600;48.568;7.870;2022-09-02T02:49:53;7.13;;;6.45;;
7116;SDS011;3600;48.568;7.870;2022-09-02T02:52:20;6.38;;;5.88;;
7116;SDS011;3600;48.568;7.870;2022-09-02T02:54:47;6.90;;;6.40;;
7116;SDS011;3600;48.568;7.870;2022-09-02T02:57:13;7.75;;;7.10;;
7116;SDS011;3600;48.568;7.870;2022-09-02T02:59:40;6.97;;;6.38;;
7116;SDS011;3600;48.568;7.870;2022-09-02T03:02:07;6.68;;;6.18;;
7116;SDS011;3600;48.568;7.870;2022-09-02T03:04:34;7.07;;;6.47;;
7116;SDS011;3600;48.568;7.870;2022-09-02T03:07:02;6.78;;;6.15;;
7116;SDS011;3600;48.568;7.870;2022-09-02T03:09:32;6.97;;;6.10;;
7116;SDS011;3600;48.568;7.870;2022-09-02T03:11:59;7.57;;;7.07;;
7116;SDS011;3600;48.568;7.870;2022-09-02T03:14:26;7.05;;;6.47;;
7116;SDS011;3600;48.568;7.870;2022-09-02T03:16:53;7.43;;;6.13;;
7116;SDS011;3600;48.568;7.870;2022-09-02T03:19:20;7.82;;;6.40;;
7116;SDS011;3600;48.568;7.870;2022-09-02T03:21:46;7.70;;;6.15;;
7116;SDS011;3600;48.568;7.870;2022-09-02T03:24:13;6.70;;;6.10;;
7116;SDS011;3600;48.568;7.870;2022-09-02T03:26:40;7.72;;;6.85;;
7116;SDS011;3600;48.568;7.870;2022-09-02T03:29:08;7.75;;;7.10;;
7116;SDS011;3600;48.568;7.870;2022-09-02T03:31:35;7.30;;;6.60;;
7116;SDS011;3600;48.568;7.870;2022-09-02T03:34:02;6.78;;;6.18;;
7116;SDS011;3600;48.568;7.870;2022-09-02T03:36:30;7.93;;;7.32;;
7116;SDS011;3600;48.568;7.870;2022-09-02T03:39:01;7.07;;;6.47;;
7116;SDS011;3600;48.568;7.870;2022-09-02T03:41:29;6.38;;;5.82;;
7116;SDS011;3600;48.568;7.870;2022-09-02T03:43:56;6.10;;;5.70;;
7116;SDS011;3600;48.568;7.870;2022-09-02T03:46:23;7.55;;;6.85;;
7116;SDS011;3600;48.568;7.870;2022-09-02T03:48:50;8.23;;;7.53;;
7116;SDS011;3600;48.568;7.870;2022-09-02T03:51:18;7.97;;;7.07;;
7116;SDS011;3600;48.568;7.870;2022-09-02T03:53:46;7.70;;;6.90;;
7116;SDS011;3600;48.568;7.870;2022-09-02T03:56:13;7.53;;;6.82;;
7116;SDS011;3600;48.568;7.870;2022-09-02T03:58:41;8.07;;;7.38;;
7116;SDS011;3600;48.568;7.870;2022-09-02T04:01:13;8.50;;;7.53;;
7116;SDS011;3600;48.568;7.870;2022-09-02T04:03:43;7.05;;;6.55;;
7116;SDS011;3600;48.568;7.870;2022-09-02T04:06:10;7.28;;;6.68;;
7116;SDS011;3600;48.568;7.870;2022-09-02T04:08:39;7.32;;;6.72;;
7116;SDS011;3600;48.568;7.870;2022-09-02T04:11:07;7.05;;;6.35;;
7116;SDS011;3600;48.568;7.870;2022-09-02T04:13:35;7.32;;;6.72;;
7116;SDS011;3600;48.568;7.870;2022-09-02T04:16:12;7.30;;;6.70;;
7116;SDS011;3600;48.568;7.870;2022-09-02T04:18:41;8.75;;;7.28;;
7116;SDS011;3600;48.568;7.870;2022-09-02T04:21:08;8.43;;;7.75;;
7116;SDS011;3600;48.568;7.870;2022-09-02T04:23:35;10.90;;;8.27;;
7116;SDS011;3600;48.568;7.870;2022-09-02T04:26:04;7.93;;;7.22;;
7116;SDS011;3600;48.568;7.870;2022-09-02T04:28:32;8.13;;;7.43;;
7116;SDS011;3600;48.568;7.870;2022-09-02T04:31:02;7.97;;;7.38;;
7116;SDS011;3600;48.568;7.870;2022-09-02T04:33:29;7.88;;;7.28;;
7116;SDS011;3600;48.568;7.870;2022-09-02T04:35:56;8.02;;;7.32;;
7116;SDS011;3600;48.568;7.870;2022-09-02T04:38:23;8.40;;;7.57;;
7116;SDS011;3600;48.568;7.870;2022-09-02T04:40:50;7.57;;;6.80;;
7116;SDS011;3600;48.568;7.870;2022-09-02T04:43:17;7.70;;;7.13;;
7116;SDS011;3600;48.568;7.870;2022-09-02T04:45:44;7.50;;;6.90;;
7116;SDS011;3600;48.568;7.870;2022-09-02T04:48:11;8.25;;;7.55;;
7116;SDS011;3600;48.568;7.870;2022-09-02T04:50:39;7.53;;;6.93;;
7116;SDS011;3600;48.568;7.870;2022-09-02T04:53:06;7.57;;;6.97;;
7116;SDS011;3600;48.568;7.870;2022-09-02T04:55:33;8.15;;;7.38;;
7116;SDS011;3600;48.568;7.870;2022-09-02T04:58:00;8.27;;;7.57;;
7116;SDS011;3600;48.568;7.870;2022-09-02T05:00:27;7.55;;;6.93;;
7116;SDS011;3600;48.568;7.870;2022-09-02T05:02:54;8.38;;;7.68;;
7116;SDS011;3600;48.568;7.870;2022-09-02T05:05:21;8.10;;;7.40;;
7116;SDS011;3600;48.568;7.870;2022-09-02T05:07:48;7.47;;;6.78;;
7116;SDS011;3600;48.568;7.870;2022-09-02T05:10:14;8.25;;;7.57;;
7116;SDS011;3600;48.568;7.870;2022-09-02T05:12:42;7.50;;;6.90;;
7116;SDS011;3600;48.568;7.870;2022-09-02T05:15:09;7.38;;;6.78;;
7116;SDS011;3600;48.568;7.870;2022-09-02T05:17:37;7.03;;;6.53;;
7116;SDS011;3600;48.568;7.870;2022-09-02T05:20:05;6.72;;;6.22;;
7116;SDS011;3600;48.568;7.870;2022-09-02T05:22:33;10.60;;;6.47;;
7116;SDS011;3600;48.568;7.870;2022-09-02T05:25:02;6.45;;;5.93;;
7116;SDS011;3600;48.568;7.870;2022-09-02T05:27:32;6.43;;;5.82;;
7116;SDS011;3600;48.568;7.870;2022-09-02T05:29:59;6.50;;;6.00;;
7116;SDS011;3600;48.568;7.870;2022-09-02T05:32:26;7.53;;;6.80;;
7116;SDS011;3600;48.568;7.870;2022-09-02T05:34:53;8.18;;;6.97;;
7116;SDS011;3600;48.568;7.870;2022-09-02T05:37:21;7.20;;;6.60;;
7116;SDS011;3600;48.568;7.870;2022-09-02T05:39:49;7.25;;;6.65;;
7116;SDS011;3600;48.568;7.870;2022-09-02T05:42:17;6.82;;;6.18;;
7116;SDS011;3600;48.568;7.870;2022-09-02T05:44:46;7.18;;;6.45;;
7116;SDS011;3600;48.568;7.870;2022-09-02T05:47:13;6.88;;;6.30;;
7116;SDS011;3600;48.568;7.870;2022-09-02T05:49:40;6.65;;;5.97;;
7116;SDS011;3600;48.568;7.870;2022-09-02T05:52:07;6.72;;;6.10;;
7116;SDS011;3600;48.568;7.870;2022-09-02T05:54:35;6.40;;;5.90;;
7116;SDS011;3600;48.568;7.870;2022-09-02T05:57:06;6.55;;;6.00;;
7116;SDS011;3600;48.568;7.870;2022-09-02T05:59:37;6.88;;;6.30;;
7116;SDS011;3600;48.568;7.870;2022-09-02T06:02:08;6.82;;;6.15;;
7116;SDS011;3600;48.568;7.870;2022-09-02T06:04:37;6.22;;;5.75;;
7116;SDS011;3600;48.568;7.870;2022-09-02T06:07:09;6.38;;;5.82;;
7116;SDS011;3600;48.568;7.870;2022-09-02T06:09:39;6.38;;;5.88;;
7116;SDS011;3600;48.568;7.870;2022-09-02T06:12:06;6.88;;;6.28;;
7116;SDS011;3600;48.568;7.870;2022-09-02T06:14:33;6.75;;;6.10;;
7116;SDS011;3600;48.568;7.870;2022-09-02T06:17:00;8.23;;;6.40;;
7116;SDS011;3600;48.568;7.870;2022-09-02T06:19:29;6.30;;;5.80;;
7116;SDS011;3600;48.568;7.870;2022-09-02T06:21:58;7.20;;;5.85;;
7116;SDS011;3600;48.568;7.870;2022-09-02T06:24:28;6.20;;;5.47;;
7116;SDS011;3600;48.568;7.870;2022-09-02T06:26:56;5.95;;;5.45;;
7116;SDS011;3600;48.568;7.870;2022-09-02T06:29:26;7.15;;;6.30;;
7116;SDS011;3600;48.568;7.870;2022-09-02T06:31:53;7.28;;;5.80;;
7116;SDS011;3600;48.568;7.870;2022-09-02T06:34:21;6.00;;;5.50;;
7116;SDS011;3600;48.568;7.870;2022-09-02T06:36:52;7.63;;;5.90;;
7116;SDS011;3600;48.568;7.870;2022-09-02T06:39:19;6.13;;;5.63;;
7116;SDS011;3600;48.568;7.870;2022-09-02T06:41:47;7.28;;;6.57;;
7116;SDS011;3600;48.568;7.870;2022-09-02T06:44:15;6.22;;;5.53;;
7116;SDS011;3600;48.568;7.870;2022-09-02T06:46:45;5.85;;;5.35;;
7116;SDS011;3600;48.568;7.870;2022-09-02T06:49:19;6.13;;;5.13;;
7116;SDS011;3600;48.568;7.870;2022-09-02T06:51:47;6.10;;;5.60;;
7116;SDS011;3600;48.568;7.870;2022-09-02T06:54:16;7.50;;;5.80;;
7116;SDS011;3600;48.568;7.870;2022-09-02T06:56:45;6.90;;;6.30;;
7116;SDS011;3600;48.568;7.870;2022-09-02T06:59:15;6.47;;;5.88;;
7116;SDS011;3600;48.568;7.870;2022-09-02T07:01:43;5.97;;;5.47;;
7116;SDS011;3600;48.568;7.870;2022-09-02T07:04:11;6.78;;;6.13;;
7116;SDS011;3600;48.568;7.870;2022-09-02T07:06:56;6.03;;;5.47;;
7116;SDS011;3600;48.568;7.870;2022-09-02T07:09:24;6.38;;;5.78;;
7116;SDS011;3600;48.568;7.870;2022-09-02T07:11:57;5.82;;;5.40;;
7116;SDS011;3600;48.568;7.870;2022-09-02T07:14:30;6.57;;;5.50;;
7116;SDS011;3600;48.568;7.870;2022-09-02T07:16:57;6.35;;;5.40;;
7116;SDS011;3600;48.568;7.870;2022-09-02T07:19:25;4.75;;;4.45;;
7116;SDS011;3600;48.568;7.870;2022-09-02T07:21:52;5.88;;;5.38;;
7116;SDS011;3600;48.568;7.870;2022-09-02T07:24:19;6.00;;;5.50;;
7116;SDS011;3600;48.568;7.870;2022-09-02T07:26:46;6.93;;;5.60;;
7116;SDS011;3600;48.568;7.870;2022-09-02T07:29:13;5.63;;;5.18;;
7116;SDS011;3600;48.568;7.870;2022-09-02T07:31:41;5.57;;;5.07;;
7116;SDS011;3600;48.568;7.870;2022-09-02T07:34:10;5.68;;;5.18;;
7116;SDS011;3600;48.568;7.870;2022-09-02T07:36:38;4.93;;;4.57;;
7116;SDS011;3600;48.568;7.870;2022-09-02T07:39:06;4.90;;;4.50;;
7116;SDS011;3600;48.568;7.870;2022-09-02T07:41:35;4.90;;;4.50;;
7116;SDS011;3600;48.568;7.870;2022-09-02T07:44:03;4.88;;;4.57;;
7116;SDS011;3600;48.568;7.870;2022-09-02T07:46:30;5.13;;;4.72;;
7116;SDS011;3600;48.568;7.870;2022-09-02T07:48:58;4.72;;;4.35;;
7116;SDS011;3600;48.568;7.870;2022-09-02T07:51:26;4.60;;;4.30;;
7116;SDS011;3600;48.568;7.870;2022-09-02T07:53:56;5.07;;;4.68;;
7116;SDS011;3600;48.568;7.870;2022-09-02T07:56:23;4.70;;;4.25;;
7116;SDS011;3600;48.568;7.870;2022-09-02T07:58:49;4.63;;;4.22;;
7116;SDS011;3600;48.568;7.870;2022-09-02T08:01:16;4.22;;;3.83;;
7116;SDS011;3600;48.568;7.870;2022-09-02T08:03:48;4.60;;;4.00;;
7116;SDS011;3600;48.568;7.870;2022-09-02T08:06:15;3.95;;;3.60;;
7116;SDS011;3600;48.568;7.870;2022-09-02T08:08:54;3.85;;;3.58;;
7116;SDS011;3600;48.568;7.870;2022-09-02T08:11:21;4.38;;;3.97;;
7116;SDS011;3600;48.568;7.870;2022-09-02T08:13:49;4.03;;;3.72;;
7116;SDS011;3600;48.568;7.870;2022-09-02T08:16:16;3.65;;;3.42;;
7116;SDS011;3600;48.568;7.870;2022-09-02T08:18:44;3.17;;;2.97;;
7116;SDS011;3600;48.568;7.870;2022-09-02T08:21:11;3.42;;;3.13;;
7116;SDS011;3600;48.568;7.870;2022-09-02T08:23:39;3.70;;;3.40;;
7116;SDS011;3600;48.568;7.870;2022-09-02T08:26:06;5.10;;;3.25;;
7116;SDS011;3600;48.568;7.870;2022-09-02T08:28:33;3.33;;;2.85;;
7116;SDS011;3600;48.568;7.870;2022-09-02T08:31:03;2.88;;;2.67;;
7116;SDS011;3600;48.568;7.870;2022-09-02T08:33:31;3.10;;;2.70;;
7116;SDS011;3600;48.568;7.870;2022-09-02T08:36:05;3.15;;;2.92;;
7116;SDS011;3600;48.568;7.870;2022-09-02T08:38:34;3.17;;;2.80;;
7116;SDS011;3600;48.568;7.870;2022-09-02T08:41:08;3.28;;;2.97;;
7116;SDS011;3600;48.568;7.870;2022-09-02T08:43:41;3.10;;;2.58;;
7116;SDS011;3600;48.568;7.870;2022-09-02T08:46:10;2.47;;;2.38;;
7116;SDS011;3600;48.568;7.870;2022-09-02T08:48:49;2.70;;;2.50;;
7116;SDS011;3600;48.568;7.870;2022-09-02T08:51:31;1.95;;;1.85;;
7116;SDS011;3600;48.568;7.870;2022-09-02T08:54:33;2.25;;;2.15;;
7116;SDS011;3600;48.568;7.870;2022-09-02T08:57:15;2.05;;;1.80;;
7116;SDS011;3600;48.568;7.870;2022-09-02T08:59:43;1.70;;;1.60;;
7116;SDS011;3600;48.568;7.870;2022-09-02T09:10:49;1.90;;;1.80;;
7116;SDS011;3600;48.568;7.870;2022-09-02T09:13:40;1.90;;;1.80;;
7116;SDS011;3600;48.568;7.870;2022-09-02T09:19:16;2.47;;;1.88;;
7116;SDS011;3600;48.568;7.870;2022-09-02T09:21:54;2.10;;;2.00;;
7116;SDS011;3600;48.568;7.870;2022-09-02T09:24:27;2.13;;;2.00;;
7116;SDS011;3600;48.568;7.870;2022-09-02T09:27:03;2.17;;;1.98;;
7116;SDS011;3600;48.568;7.870;2022-09-02T09:29:33;2.20;;;2.03;;
7116;SDS011;3600;48.568;7.870;2022-09-02T09:32:01;2.30;;;2.10;;
7116;SDS011;3600;48.568;7.870;2022-09-02T09:37:53;2.08;;;1.88;;
7116;SDS011;3600;48.568;7.870;2022-09-02T09:45:43;1.85;;;1.70;;
7116;SDS011;3600;48.568;7.870;2022-09-02T09:50:45;1.90;;;1.80;;
7116;SDS011;3600;48.568;7.870;2022-09-02T09:53:16;5.50;;;2.33;;
7116;SDS011;3600;48.568;7.870;2022-09-02T09:58:18;1.60;;;1.50;;
7116;SDS011;3600;48.568;7.870;2022-09-02T10:00:46;1.80;;;1.70;;
7116;SDS011;3600;48.568;7.870;2022-09-02T10:03:21;1.67;;;1.58;;
7116;SDS011;3600;48.568;7.870;2022-09-02T10:05:55;2.63;;;1.77;;
7116;SDS011;3600;48.568;7.870;2022-09-02T10:08:26;1.98;;;1.63;;
7116;SDS011;3600;48.568;7.870;2022-09-02T10:11:00;1.67;;;1.52;;
7116;SDS011;3600;48.568;7.870;2022-09-02T10:13:29;4.97;;;1.50;;
7116;SDS011;3600;48.568;7.870;2022-09-02T10:18:40;2.58;;;1.40;;
7116;SDS011;3600;48.568;7.870;2022-09-02T10:23:45;1.38;;;1.27;;
7116;SDS011;3600;48.568;7.870;2022-09-02T10:26:36;1.60;;;1.50;;
7116;SDS011;3600;48.568;7.870;2022-09-02T10:29:20;1.42;;;1.10;;
7116;SDS011;3600;48.568;7.870;2022-09-02T10:34:58;1.50;;;1.33;;
7116;SDS011;3600;48.568;7.870;2022-09-02T10:40:33;2.30;;;1.42;;
7116;SDS011;3600;48.568;7.870;2022-09-02T10:43:07;2.05;;;1.63;;
7116;SDS011;3600;48.568;7.870;2022-09-02T10:50:59;1.40;;;1.30;;
7116;SDS011;3600;48.568;7.870;2022-09-02T10:56:28;1.23;;;1.10;;
7116;SDS011;3600;48.568;7.870;2022-09-02T10:59:17;1.60;;;1.15;;
7116;SDS011;3600;48.568;7.870;2022-09-02T11:07:03;1.27;;;1.27;;
7116;SDS011;3600;48.568;7.870;2022-09-02T11:14:36;1.42;;;1.33;;
7116;SDS011;3600;48.568;7.870;2022-09-02T11:22:51;0.93;;;0.93;;
7116;SDS011;3600;48.568;7.870;2022-09-02T11:25:31;1.25;;;1.15;;
7116;SDS011;3600;48.568;7.870;2022-09-02T11:28:29;0.90;;;0.90;;
7116;SDS011;3600;48.568;7.870;2022-09-02T11:37:07;1.27;;;1.20;;
7116;SDS011;3600;48.568;7.870;2022-09-02T11:39:50;1.40;;;1.30;;
7116;SDS011;3600;48.568;7.870;2022-09-02T11:45:48;1.38;;;1.23;;
7116;SDS011;3600;48.568;7.870;2022-09-02T11:48:38;1.20;;;1.10;;
7116;SDS011;3600;48.568;7.870;2022-09-02T11:51:47;1.83;;;1.13;;
7116;SDS011;3600;48.568;7.870;2022-09-02T11:54:28;1.35;;;1.23;;
7116;SDS011;3600;48.568;7.870;2022-09-02T11:57:04;1.00;;;1.00;;
7116;SDS011;3600;48.568;7.870;2022-09-02T12:08:09;1.58;;;1.17;;
7116;SDS011;3600;48.568;7.870;2022-09-02T12:11:02;1.42;;;1.20;;
7116;SDS011;3600;48.568;7.870;2022-09-02T12:13:33;1.33;;;1.13;;
7116;SDS011;3600;48.568;7.870;2022-09-02T12:18:45;2.95;;;1.38;;
7116;SDS011;3600;48.568;7.870;2022-09-02T12:21:35;1.13;;;1.10;;
7116;SDS011;3600;48.568;7.870;2022-09-02T12:24:58;1.00;;;0.93;;
7116;SDS011;3600;48.568;7.870;2022-09-02T12:27:30;2.10;;;1.15;;
7116;SDS011;3600;48.568;7.870;2022-09-02T12:29:59;1.10;;;1.02;;
7116;SDS011;3600;48.568;7.870;2022-09-02T12:35:12;1.33;;;1.23;;
7116;SDS011;3600;48.568;7.870;2022-09-02T12:40:49;1.17;;;1.08;;
7116;SDS011;3600;48.568;7.870;2022-09-02T12:43:21;1.17;;;1.10;;
7116;SDS011;3600;48.568;7.870;2022-09-02T12:48:53;1.05;;;1.05;;
7116;SDS011;3600;48.568;7.870;2022-09-02T12:54:22;1.02;;;1.02;;
7116;SDS011;3600;48.568;7.870;2022-09-02T12:57:01;1.20;;;1.02;;
7116;SDS011;3600;48.568;7.870;2022-09-02T12:59:32;1.35;;;1.27;;
7116;SDS011;3600;48.568;7.870;2022-09-02T13:07:47;1.02;;;0.98;;
7116;SDS011;3600;48.568;7.870;2022-09-02T13:13:17;1.08;;;0.98;;
7116;SDS011;3600;48.568;7.870;2022-09-02T13:15:52;1.80;;;1.50;;
7116;SDS011;3600;48.568;7.870;2022-09-02T13:24:42;0.93;;;0.90;;
7116;SDS011;3600;48.568;7.870;2022-09-02T13:33:26;1.30;;;1.20;;
7116;SDS011;3600;48.568;7.870;2022-09-02T13:35:53;1.77;;;1.20;;
7116;SDS011;3600;48.568;7.870;2022-09-02T13:38:24;1.10;;;1.10;;
7116;SDS011;3600;48.568;7.870;2022-09-02T13:40:53;3.08;;;1.42;;
7116;SDS011;3600;48.568;7.870;2022-09-02T13:43:21;1.40;;;1.30;;
7116;SDS011;3600;48.568;7.870;2022-09-02T13:45:52;1.50;;;1.17;;
7116;SDS011;3600;48.568;7.870;2022-09-02T13:48:25;1.02;;;1.02;;
7116;SDS011;3600;48.568;7.870;2022-09-02T13:51:12;2.22;;;1.10;;
7116;SDS011;3600;48.568;7.870;2022-09-02T13:53:41;1.00;;;1.00;;
7116;SDS011;3600;48.568;7.870;2022-09-02T13:56:30;1.45;;;1.20;;
7116;SDS011;3600;48.568;7.870;2022-09-02T13:58:57;3.65;;;1.25;;
7116;SDS011;3600;48.568;7.870;2022-09-02T14:01:35;1.17;;;1.10;;
7116;SDS011;3600;48.568;7.870;2022-09-02T14:04:06;1.15;;;0.90;;
7116;SDS011;3600;48.568;7.870;2022-09-02T14:06:38;1.80;;;1.13;;
7116;SDS011;3600;48.568;7.870;2022-09-02T14:09:09;1.00;;;1.00;;
7116;SDS011;3600;48.568;7.870;2022-09-02T14:11:44;1.20;;;1.20;;
7116;SDS011;3600;48.568;7.870;2022-09-02T14:14:13;1.27;;;1.20;;
7116;SDS011;3600;48.568;7.870;2022-09-02T14:16:41;1.58;;;1.35;;
7116;SDS011;3600;48.568;7.870;2022-09-02T14:21:51;1.77;;;1.20;;
7116;SDS011;3600;48.568;7.870;2022-09-02T14:24:22;2.60;;;1.20;;
7116;SDS011;3600;48.568;7.870;2022-09-02T14:26:52;2.30;;;1.35;;
7116;SDS011;3600;48.568;7.870;2022-09-02T14:29:21;1.23;;;1.17;;
7116;SDS011;3600;48.568;7.870;2022-09-02T14:34:41;1.35;;;1.25;;
7116;SDS011;3600;48.568;7.870;2022-09-02T14:37:14;1.85;;;1.25;;
7116;SDS011;3600;48.568;7.870;2022-09-02T14:40:00;1.55;;;1.00;;
7116;SDS011;3600;48.568;7.870;2022-09-02T14:42:32;2.35;;;1.20;;
7116;SDS011;3600;48.568;7.870;2022-09-02T14:45:08;2.60;;;1.27;;
7116;SDS011;3600;48.568;7.870;2022-09-02T14:47:37;1.30;;;1.20;;
7116;SDS011;3600;48.568;7.870;2022-09-02T14:50:11;1.30;;;1.30;;
7116;SDS011;3600;48.568;7.870;2022-09-02T14:52:45;1.52;;;1.33;;
7116;SDS011;3600;48.568;7.870;2022-09-02T14:58:14;1.38;;;1.23;;
7116;SDS011;3600;48.568;7.870;2022-09-02T15:00:45;1.58;;;1.48;;
7116;SDS011;3600;48.568;7.870;2022-09-02T15:03:14;1.38;;;1.27;;
7116;SDS011;3600;48.568;7.870;2022-09-02T15:05:42;1.00;;;1.00;;
7116;SDS011;3600;48.568;7.870;2022-09-02T15:08:09;1.33;;;1.23;;
7116;SDS011;3600;48.568;7.870;2022-09-02T15:10:37;1.20;;;1.10;;
7116;SDS011;3600;48.568;7.870;2022-09-02T15:13:09;1.17;;;1.13;;
7116;SDS011;3600;48.568;7.870;2022-09-02T15:15:38;1.50;;;1.40;;
7116;SDS011;3600;48.568;7.870;2022-09-02T15:18:05;1.40;;;1.30;;
7116;SDS011;3600;48.568;7.870;2022-09-02T15:20:34;1.40;;;1.30;;
7116;SDS011;3600;48.568;7.870;2022-09-02T15:23:01;1.95;;;1.27;;
7116;SDS011;3600;48.568;7.870;2022-09-02T15:25:28;4.32;;;1.25;;
7116;SDS011;3600;48.568;7.870;2022-09-02T15:27:55;1.60;;;1.50;;
7116;SDS011;3600;48.568;7.870;2022-09-02T15:30:22;1.70;;;1.33;;
7116;SDS011;3600;48.568;7.870;2022-09-02T15:32:49;2.88;;;1.50;;
7116;SDS011;3600;48.568;7.870;2022-09-02T15:35:16;2.80;;;1.42;;
7116;SDS011;3600;48.568;7.870;2022-09-02T15:37:43;2.00;;;1.20;;
7116;SDS011;3600;48.568;7.870;2022-09-02T15:40:14;1.92;;;1.42;;
7116;SDS011;3600;48.568;7.870;2022-09-02T15:42:41;0.93;;;0.93;;
7116;SDS011;3600;48.568;7.870;2022-09-02T15:45:08;1.42;;;1.33;;
7116;SDS011;3600;48.568;7.870;2022-09-02T15:47:35;1.20;;;1.10;;
7116;SDS011;3600;48.568;7.870;2022-09-02T15:50:04;1.38;;;1.27;;
7116;SDS011;3600;48.568;7.870;2022-09-02T15:52:32;1.88;;;1.30;;
7116;SDS011;3600;48.568;7.870;2022-09-02T15:55:00;1.58;;;1.48;;
7116;SDS011;3600;48.568;7.870;2022-09-02T15:57:27;2.00;;;1.48;;
7116;SDS011;3600;48.568;7.870;2022-09-02T15:59:55;1.58;;;1.40;;
7116;SDS011;3600;48.568;7.870;2022-09-02T16:02:22;2.35;;;1.50;;
7116;SDS011;3600;48.568;7.870;2022-09-02T16:04:49;1.40;;;1.30;;
7116;SDS011;3600;48.568;7.870;2022-09-02T16:07:16;1.65;;;1.40;;
7116;SDS011;3600;48.568;7.870;2022-09-02T16:09:43;1.35;;;1.25;;
7116;SDS011;3600;48.568;7.870;2022-09-02T16:12:10;2.20;;;1.33;;
7116;SDS011;3600;48.568;7.870;2022-09-02T16:14:37;1.50;;;1.40;;
7116;SDS011;3600;48.568;7.870;2022-09-02T16:17:04;1.60;;;1.50;;
7116;SDS011;3600;48.568;7.870;2022-09-02T16:19:33;1.60;;;1.45;;
7116;SDS011;3600;48.568;7.870;2022-09-02T16:22:00;1.48;;;1.30;;
7116;SDS011;3600;48.568;7.870;2022-09-02T16:24:27;1.77;;;1.67;;
7116;SDS011;3600;48.568;7.870;2022-09-02T16:26:54;1.75;;;1.50;;
7116;SDS011;3600;48.568;7.870;2022-09-02T16:29:21;1.30;;;1.25;;
7116;SDS011;3600;48.568;7.870;2022-09-02T16:31:53;1.30;;;1.25;;
7116;SDS011;3600;48.568;7.870;2022-09-02T16:34:40;1.67;;;1.17;;
7116;SDS011;3600;48.568;7.870;2022-09-02T16:37:07;1.25;;;1.23;;
7116;SDS011;3600;48.568;7.870;2022-09-02T16:39:34;1.60;;;1.50;;
7116;SDS011;3600;48.568;7.870;2022-09-02T16:42:01;1.55;;;1.45;;
7116;SDS011;3600;48.568;7.870;2022-09-02T16:44:29;7.80;;;1.73;;
7116;SDS011;3600;48.568;7.870;2022-09-02T16:46:59;1.83;;;1.70;;
7116;SDS011;3600;48.568;7.870;2022-09-02T16:49:25;4.30;;;1.80;;
7116;SDS011;3600;48.568;7.870;2022-09-02T16:51:52;1.20;;;1.10;;
7116;SDS011;3600;48.568;7.870;2022-09-02T16:54:24;1.92;;;1.77;;
7116;SDS011;3600;48.568;7.870;2022-09-02T16:56:57;5.38;;;1.67;;
7116;SDS011;3600;48.568;7.870;2022-09-02T16:59:24;1.75;;;1.40;;
7116;SDS011;3600;48.568;7.870;2022-09-02T17:01:52;2.17;;;1.67;;
7116;SDS011;3600;48.568;7.870;2022-09-02T17:04:19;3.72;;;1.50;;
7116;SDS011;3600;48.568;7.870;2022-09-02T17:06:46;2.72;;;1.73;;
7116;SDS011;3600;48.568;7.870;2022-09-02T17:09:13;1.55;;;1.45;;
7116;SDS011;3600;48.568;7.870;2022-09-02T17:11:41;2.67;;;1.92;;
7116;SDS011;3600;48.568;7.870;2022-09-02T17:14:11;1.55;;;1.45;;
7116;SDS011;3600;48.568;7.870;2022-09-02T17:16:45;2.25;;;2.03;;
7116;SDS011;3600;48.568;7.870;2022-09-02T17:19:14;1.70;;;1.60;;
7116;SDS011;3600;48.568;7.870;2022-09-02T17:21:50;2.63;;;1.35;;
7116;SDS011;3600;48.568;7.870;2022-09-02T17:24:22;2.70;;;1.40;;
7116;SDS011;3600;48.568;7.870;2022-09-02T17:26:51;1.73;;;1.60;;
7116;SDS011;3600;48.568;7.870;2022-09-02T17:29:22;2.92;;;1.50;;
7116;SDS011;3600;48.568;7.870;2022-09-02T17:32:09;3.70;;;1.40;;
7116;SDS011;3600;48.568;7.870;2022-09-02T17:34:36;2.10;;;1.90;;
7116;SDS011;3600;48.568;7.870;2022-09-02T17:37:03;3.67;;;1.92;;
7116;SDS011;3600;48.568;7.870;2022-09-02T17:39:30;3.42;;;2.55;;